createdAt,value
2017-07-30T00:00:32.776Z,16.80
2017-07-30T00:03:00.449Z,16.70
2017-07-30T00:05:28.079Z,16.70
2017-07-30T00:07:55.735Z,16.70
2017-07-30T00:10:23.382Z,16.60
2017-07-30T00:12:51.045Z,16.60
2017-07-30T00:15:18.722Z,16.60
2017-07-30T00:17:46.361Z,16.60
2017-07-30T00:20:14.788Z,16.50
2017-07-30T00:22:42.423Z,16.50
2017-07-30T00:25:10.062Z,16.50
2017-07-30T00:27:37.717Z,16.40
2017-07-30T00:30:05.335Z,16.50
2017-07-30T00:32:33.020Z,16.60
2017-07-30T00:35:00.660Z,16.50
2017-07-30T00:37:28.301Z,16.40
2017-07-30T00:39:55.966Z,16.60
2017-07-30T00:42:23.613Z,16.50
2017-07-30T00:44:51.280Z,16.50
2017-07-30T00:47:19.682Z,16.40
2017-07-30T00:49:47.326Z,16.40
2017-07-30T00:52:15.001Z,16.40
2017-07-30T00:54:42.655Z,16.30
2017-07-30T00:57:10.341Z,16.30
2017-07-30T00:59:38.757Z,16.30
2017-07-30T01:02:06.389Z,16.30
2017-07-30T01:04:34.060Z,16.40
2017-07-30T01:07:01.713Z,16.40
2017-07-30T01:09:29.379Z,16.40
2017-07-30T01:11:57.014Z,16.50
2017-07-30T01:14:24.650Z,16.50
2017-07-30T01:16:52.330Z,16.40
2017-07-30T01:19:20.736Z,16.30
2017-07-30T01:21:48.418Z,16.20
2017-07-30T01:24:16.061Z,16.30
2017-07-30T01:26:43.706Z,16.20
2017-07-30T01:29:11.376Z,16.30
2017-07-30T01:31:39.781Z,16.20
2017-07-30T01:34:07.459Z,16.10
2017-07-30T01:36:35.090Z,16.10
2017-07-30T01:39:02.757Z,16.10
2017-07-30T01:41:30.433Z,16.10
2017-07-30T01:43:58.841Z,16.10
2017-07-30T01:46:26.510Z,16.10
2017-07-30T01:48:54.157Z,16.20
2017-07-30T01:51:21.809Z,16.20
2017-07-30T01:53:49.492Z,16.10
2017-07-30T01:56:17.905Z,16.00
2017-07-30T01:58:45.575Z,15.90
2017-07-30T02:01:13.226Z,16.00
2017-07-30T02:03:40.863Z,16.00
2017-07-30T02:06:08.535Z,16.00
2017-07-30T02:08:36.945Z,15.90
2017-07-30T02:11:04.615Z,15.90
2017-07-30T02:13:32.254Z,15.90
2017-07-30T02:15:59.890Z,15.90
2017-07-30T02:18:27.582Z,15.90
2017-07-30T02:20:55.989Z,15.80
2017-07-30T02:23:23.658Z,15.80
2017-07-30T02:25:51.302Z,15.90
2017-07-30T02:28:18.954Z,15.90
2017-07-30T02:30:46.615Z,16.00
2017-07-30T02:33:14.249Z,15.90
2017-07-30T02:35:41.919Z,15.80
2017-07-30T02:38:09.552Z,15.80
2017-07-30T02:40:37.192Z,15.80
2017-07-30T02:43:04.869Z,15.80
2017-07-30T02:45:33.263Z,15.80
2017-07-30T02:48:00.931Z,15.70
2017-07-30T02:50:28.572Z,15.70
2017-07-30T02:52:56.222Z,15.70
2017-07-30T02:55:23.883Z,15.70
2017-07-30T02:57:51.529Z,15.80
2017-07-30T03:00:19.192Z,15.80
2017-07-30T03:02:46.828Z,15.80
2017-07-30T03:05:14.455Z,15.70
2017-07-30T03:07:42.120Z,15.70
2017-07-30T03:10:09.746Z,15.70
2017-07-30T03:12:37.420Z,15.70
2017-07-30T03:15:05.057Z,15.70
2017-07-30T03:17:32.679Z,15.70
2017-07-30T03:20:00.347Z,15.70
2017-07-30T03:22:28.008Z,15.70
2017-07-30T03:24:55.671Z,15.70
2017-07-30T03:27:23.303Z,15.70
2017-07-30T03:29:50.941Z,15.70
2017-07-30T03:32:18.598Z,15.70
2017-07-30T03:34:46.228Z,15.70
2017-07-30T03:37:13.897Z,15.80
2017-07-30T03:39:41.526Z,15.70
2017-07-30T03:42:09.153Z,15.70
2017-07-30T03:44:36.814Z,15.70
2017-07-30T03:47:04.448Z,15.70
2017-07-30T03:49:32.136Z,15.80
2017-07-30T03:51:59.770Z,15.80
2017-07-30T03:54:27.399Z,15.70
2017-07-30T03:56:55.066Z,15.70
2017-07-30T03:59:22.701Z,15.70
2017-07-30T04:01:50.360Z,15.70
2017-07-30T04:04:17.986Z,15.80
2017-07-30T04:06:45.632Z,15.80
2017-07-30T04:09:13.292Z,15.90
2017-07-30T04:11:40.928Z,15.90
2017-07-30T04:14:08.582Z,15.90
2017-07-30T04:16:36.224Z,16.00
2017-07-30T04:19:03.842Z,16.10
2017-07-30T04:21:31.504Z,16.10
2017-07-30T04:23:59.134Z,16.10
2017-07-30T04:26:26.804Z,16.20
2017-07-30T04:28:54.427Z,16.30
2017-07-30T04:31:22.062Z,16.40
2017-07-30T04:33:49.728Z,16.50
2017-07-30T04:36:17.357Z,16.50
2017-07-30T04:38:45.026Z,16.70
2017-07-30T04:41:12.661Z,16.70
2017-07-30T04:43:40.288Z,16.70
2017-07-30T04:46:07.978Z,16.90
2017-07-30T04:48:35.613Z,17.00
2017-07-30T04:51:03.280Z,17.20
2017-07-30T04:53:30.908Z,17.40
2017-07-30T04:55:58.577Z,17.60
2017-07-30T04:58:26.235Z,17.70
2017-07-30T05:00:53.869Z,17.90
2017-07-30T05:03:21.504Z,18.00
2017-07-30T05:05:49.112Z,18.20
2017-07-30T05:08:16.770Z,18.20
2017-07-30T05:10:45.181Z,18.50
2017-07-30T05:13:12.793Z,18.40
2017-07-30T05:15:40.432Z,18.60
2017-07-30T05:18:08.039Z,18.90
2017-07-30T05:20:35.659Z,19.10
2017-07-30T05:23:03.300Z,19.10
2017-07-30T05:25:30.900Z,19.30
2017-07-30T05:27:59.308Z,19.50
2017-07-30T05:30:26.909Z,19.40
2017-07-30T05:32:55.299Z,19.80
2017-07-30T05:35:22.936Z,19.80
2017-07-30T05:37:50.556Z,20.10
2017-07-30T05:40:18.194Z,20.30
2017-07-30T05:42:45.816Z,20.50
2017-07-30T05:45:13.426Z,20.60
2017-07-30T05:47:41.071Z,20.90
2017-07-30T05:50:08.703Z,21.00
2017-07-30T05:52:37.114Z,21.40
2017-07-30T05:55:04.719Z,21.20
2017-07-30T05:57:33.080Z,21.90
2017-07-30T06:00:01.510Z,22.10
2017-07-30T06:02:29.129Z,22.10
2017-07-30T06:04:56.777Z,22.50
2017-07-30T06:07:24.385Z,23.00
2017-07-30T06:09:52.769Z,23.80
2017-07-30T06:12:20.399Z,23.70
2017-07-30T06:14:48.009Z,24.30
2017-07-30T06:17:15.648Z,24.90
2017-07-30T06:19:43.260Z,25.30
2017-07-30T06:22:10.873Z,25.60
2017-07-30T06:24:38.556Z,25.80
2017-07-30T06:27:06.172Z,26.20
2017-07-30T06:29:34.582Z,26.90
2017-07-30T06:32:02.191Z,26.80
2017-07-30T06:34:29.791Z,27.20
2017-07-30T06:36:57.432Z,27.30
2017-07-30T06:39:25.042Z,27.70
2017-07-30T06:41:52.700Z,28.70
2017-07-30T06:44:20.311Z,28.90
2017-07-30T06:46:48.739Z,30.70
2017-07-30T06:49:16.403Z,30.50
2017-07-30T06:51:44.020Z,30.50
2017-07-30T06:54:11.661Z,31.20
2017-07-30T06:56:39.255Z,31.70
2017-07-30T06:59:07.638Z,31.80
2017-07-30T07:01:35.358Z,31.70
2017-07-30T07:04:03.737Z,32.40
2017-07-30T07:06:31.373Z,32.30
2017-07-30T07:08:59.765Z,32.60
2017-07-30T07:11:27.380Z,32.50
2017-07-30T07:13:55.790Z,32.50
2017-07-30T07:16:23.392Z,32.50
2017-07-30T07:18:51.028Z,32.60
2017-07-30T07:21:19.126Z,33.40
2017-07-30T07:23:46.857Z,33.10
2017-07-30T07:26:15.411Z,32.70
2017-07-30T07:28:43.873Z,32.40
2017-07-30T07:31:11.535Z,32.30
2017-07-30T07:33:39.189Z,32.00
2017-07-30T07:36:06.791Z,31.90
2017-07-30T07:38:34.448Z,31.80
2017-07-30T07:41:02.103Z,32.50
2017-07-30T07:43:29.739Z,32.90
2017-07-30T07:45:57.343Z,32.80
2017-07-30T07:48:24.943Z,33.10
2017-07-30T07:50:52.647Z,33.00
2017-07-30T07:53:20.271Z,32.60
2017-07-30T07:55:47.922Z,33.00
2017-07-30T07:58:15.533Z,33.70
2017-07-30T08:00:43.938Z,34.30
2017-07-30T08:03:11.588Z,34.20
2017-07-30T08:05:39.201Z,34.70
2017-07-30T08:08:07.617Z,34.20
2017-07-30T08:10:36.123Z,34.10
2017-07-30T08:13:03.868Z,33.80
2017-07-30T08:15:32.288Z,34.40
2017-07-30T08:17:59.908Z,34.40
2017-07-30T08:20:27.585Z,34.50
2017-07-30T08:22:55.785Z,33.80
2017-07-30T08:25:23.439Z,33.90
2017-07-30T08:27:51.857Z,33.50
2017-07-30T08:30:19.465Z,33.40
2017-07-30T08:32:47.115Z,34.10
2017-07-30T08:35:14.736Z,35.20
2017-07-30T08:37:43.109Z,34.30
2017-07-30T08:40:10.763Z,34.20
2017-07-30T08:42:38.392Z,34.30
2017-07-30T08:45:06.035Z,34.30
2017-07-30T08:47:33.632Z,35.20
2017-07-30T08:50:01.746Z,34.50
2017-07-30T08:52:29.562Z,34.60
2017-07-30T08:54:57.216Z,34.70
2017-07-30T08:57:24.857Z,34.60
2017-07-30T08:59:52.464Z,34.40
2017-07-30T09:02:20.164Z,34.30
2017-07-30T09:04:47.800Z,35.60
2017-07-30T09:07:15.410Z,35.10
2017-07-30T09:09:43.062Z,34.90
2017-07-30T09:12:10.797Z,34.80
2017-07-30T09:14:39.922Z,35.30
2017-07-30T09:17:08.621Z,35.60
2017-07-30T09:19:36.997Z,35.20
2017-07-30T09:22:05.424Z,34.40
2017-07-30T09:24:33.203Z,34.40
2017-07-30T09:27:00.937Z,35.00
2017-07-30T09:29:28.627Z,35.50
2017-07-30T09:31:56.261Z,35.70
2017-07-30T09:34:23.916Z,36.00
2017-07-30T09:36:51.542Z,35.80
2017-07-30T09:39:19.191Z,35.60
2017-07-30T09:41:47.606Z,35.90
2017-07-30T09:44:15.209Z,35.80
2017-07-30T09:46:42.872Z,35.70
2017-07-30T09:49:10.505Z,35.10
2017-07-30T09:51:38.122Z,34.90
2017-07-30T09:54:05.757Z,35.00
2017-07-30T09:56:33.378Z,36.10
2017-07-30T09:59:01.013Z,35.70
2017-07-30T10:01:28.680Z,36.50
2017-07-30T10:03:56.298Z,36.40
2017-07-30T10:06:23.931Z,35.90
2017-07-30T10:08:51.540Z,35.00
2017-07-30T10:11:19.176Z,35.20
2017-07-30T10:13:46.794Z,35.10
2017-07-30T10:16:14.406Z,35.90
2017-07-30T10:18:42.044Z,35.70
2017-07-30T10:21:10.433Z,36.40
2017-07-30T10:23:38.085Z,36.30
2017-07-30T10:26:05.684Z,36.30
2017-07-30T10:28:33.672Z,36.70
2017-07-30T10:31:01.466Z,36.90
2017-07-30T10:33:29.075Z,37.60
2017-07-30T10:35:56.711Z,37.40
2017-07-30T10:38:24.304Z,37.00
2017-07-30T10:40:51.929Z,36.30
2017-07-30T10:43:19.579Z,36.40
2017-07-30T10:45:47.190Z,36.20
2017-07-30T10:48:14.836Z,36.10
2017-07-30T10:50:42.481Z,35.40
2017-07-30T10:53:10.848Z,35.80
2017-07-30T10:55:38.482Z,35.70
2017-07-30T10:58:06.847Z,35.00
2017-07-30T11:00:35.637Z,34.80
2017-07-30T11:03:03.274Z,34.70
2017-07-30T11:05:35.446Z,34.60
2017-07-30T11:08:09.075Z,34.10
2017-07-30T11:10:36.687Z,33.60
2017-07-30T11:13:04.519Z,34.10
2017-07-30T11:15:32.516Z,34.30
2017-07-30T11:18:00.296Z,34.60
2017-07-30T11:20:28.805Z,34.50
2017-07-30T11:22:56.435Z,34.40
2017-07-30T11:25:24.072Z,34.00
2017-07-30T11:27:52.576Z,34.20
2017-07-30T11:30:20.185Z,34.10
2017-07-30T11:32:47.828Z,34.60
2017-07-30T11:35:16.199Z,34.30
2017-07-30T11:37:43.870Z,34.20
2017-07-30T11:40:11.479Z,34.00
2017-07-30T11:42:39.089Z,33.90
2017-07-30T11:45:06.734Z,33.00
2017-07-30T11:47:34.345Z,32.40
2017-07-30T11:50:01.980Z,31.80
2017-07-30T11:52:29.673Z,31.50
2017-07-30T11:54:57.302Z,31.40
2017-07-30T11:57:24.940Z,31.40
2017-07-30T11:59:52.562Z,31.40
2017-07-30T12:02:20.205Z,31.20
2017-07-30T12:04:47.800Z,31.20
2017-07-30T12:07:15.465Z,31.20
2017-07-30T12:09:43.111Z,31.10
2017-07-30T12:12:10.864Z,30.90
2017-07-30T12:14:39.338Z,30.60
2017-07-30T12:17:06.973Z,30.50
2017-07-30T12:19:34.568Z,30.60
2017-07-30T12:22:02.213Z,30.70
2017-07-30T12:24:29.828Z,31.10
2017-07-30T12:26:58.257Z,31.60
2017-07-30T12:29:25.846Z,31.60
2017-07-30T12:31:54.207Z,31.60
2017-07-30T12:34:22.621Z,31.60
2017-07-30T12:36:50.230Z,31.60
2017-07-30T12:39:17.870Z,31.40
2017-07-30T12:41:45.475Z,31.50
2017-07-30T12:44:13.093Z,31.50
2017-07-30T12:46:40.731Z,31.30
2017-07-30T12:49:08.348Z,31.50
2017-07-30T12:51:36.107Z,31.70
2017-07-30T12:54:03.779Z,31.90
2017-07-30T12:56:31.417Z,31.90
2017-07-30T12:58:59.076Z,31.70
2017-07-30T13:01:26.689Z,31.70
2017-07-30T13:03:55.106Z,32.00
2017-07-30T13:06:22.707Z,31.90
2017-07-30T13:08:50.515Z,31.90
2017-07-30T13:11:18.945Z,32.00
2017-07-30T13:13:46.563Z,32.00
2017-07-30T13:16:14.395Z,32.10
2017-07-30T13:18:42.774Z,31.80
2017-07-30T13:21:11.156Z,31.80
2017-07-30T13:23:38.957Z,31.80
2017-07-30T13:26:06.590Z,31.90
2017-07-30T13:28:34.223Z,31.80
2017-07-30T13:31:01.884Z,31.70
2017-07-30T13:33:29.669Z,31.40
2017-07-30T13:35:57.509Z,31.20
2017-07-30T13:38:25.348Z,31.10
2017-07-30T13:40:53.145Z,31.00
2017-07-30T13:43:20.811Z,31.00
2017-07-30T13:45:48.424Z,31.20
2017-07-30T13:48:16.603Z,31.40
2017-07-30T13:50:44.241Z,31.50
2017-07-30T13:53:11.890Z,31.60
2017-07-30T13:55:39.636Z,31.60
2017-07-30T13:58:07.244Z,31.70
2017-07-30T14:00:35.042Z,32.10
2017-07-30T14:03:02.681Z,32.30
2017-07-30T14:05:30.544Z,32.40
2017-07-30T14:07:58.161Z,32.30
2017-07-30T14:10:25.790Z,32.10
2017-07-30T14:12:53.430Z,31.90
2017-07-30T14:15:21.040Z,31.60
2017-07-30T14:17:48.734Z,31.50
2017-07-30T14:20:17.312Z,31.70
2017-07-30T14:22:45.689Z,31.80
2017-07-30T14:25:13.349Z,31.80
2017-07-30T14:27:40.958Z,32.00
2017-07-30T14:30:09.364Z,32.10
2017-07-30T14:32:36.975Z,32.00
2017-07-30T14:35:05.396Z,32.20
2017-07-30T14:37:33.335Z,32.10
2017-07-30T14:40:01.760Z,32.00
2017-07-30T14:42:29.472Z,32.00
2017-07-30T14:44:57.202Z,32.00
2017-07-30T14:47:24.818Z,32.00
2017-07-30T14:49:52.446Z,32.10
2017-07-30T14:52:20.830Z,32.40
2017-07-30T14:54:48.497Z,32.40
2017-07-30T14:57:16.105Z,32.50
2017-07-30T14:59:44.471Z,32.50
2017-07-30T15:02:12.890Z,32.50
2017-07-30T15:04:40.504Z,32.50
2017-07-30T15:07:08.152Z,32.60
2017-07-30T15:09:35.757Z,32.50
2017-07-30T15:12:03.359Z,32.40
2017-07-30T15:14:31.029Z,32.30
2017-07-30T15:16:58.642Z,32.30
2017-07-30T15:19:26.300Z,32.30
2017-07-30T15:21:53.918Z,32.30
2017-07-30T15:24:21.519Z,32.30
2017-07-30T15:26:49.158Z,32.40
2017-07-30T15:29:16.769Z,32.30
2017-07-30T15:31:44.397Z,32.10
2017-07-30T15:34:12.007Z,32.10
2017-07-30T15:36:39.625Z,32.10
2017-07-30T15:39:07.252Z,31.90
2017-07-30T15:41:34.869Z,31.80
2017-07-30T15:44:03.294Z,31.70
2017-07-30T15:46:30.900Z,31.70
2017-07-30T15:48:58.504Z,31.80
2017-07-30T15:51:26.162Z,31.70
2017-07-30T15:53:53.781Z,31.70
2017-07-30T15:56:23.308Z,31.60
2017-07-30T15:58:51.667Z,31.50
2017-07-30T16:01:20.064Z,31.50
2017-07-30T16:03:47.813Z,31.50
2017-07-30T16:06:15.425Z,31.40
2017-07-30T16:08:43.065Z,31.40
2017-07-30T16:11:10.674Z,31.30
2017-07-30T16:13:39.458Z,31.20
2017-07-30T16:16:08.821Z,31.30
2017-07-30T16:18:36.449Z,31.40
2017-07-30T16:21:04.080Z,31.30
2017-07-30T16:23:31.683Z,31.40
2017-07-30T16:25:59.294Z,31.30
2017-07-30T16:28:26.932Z,31.20
2017-07-30T16:30:54.563Z,31.20
2017-07-30T16:33:23.333Z,31.00
2017-07-30T16:35:51.070Z,30.90
2017-07-30T16:38:19.457Z,31.00
2017-07-30T16:40:47.464Z,31.00
2017-07-30T16:43:15.103Z,31.00
2017-07-30T16:45:42.775Z,31.00
2017-07-30T16:48:11.205Z,30.90
2017-07-30T16:50:38.823Z,30.80
2017-07-30T16:53:06.474Z,30.80
2017-07-30T16:55:34.116Z,30.80
2017-07-30T16:58:02.857Z,30.70
2017-07-30T17:00:30.565Z,30.60
2017-07-30T17:02:58.234Z,30.60
2017-07-30T17:05:25.881Z,30.60
2017-07-30T17:07:53.500Z,30.50
2017-07-30T17:10:21.142Z,30.40
2017-07-30T17:12:52.386Z,30.30
2017-07-30T17:15:20.726Z,30.20
2017-07-30T17:17:48.529Z,30.10
2017-07-30T17:20:16.289Z,29.90
2017-07-30T17:22:43.985Z,29.90
2017-07-30T17:25:11.733Z,29.90
2017-07-30T17:27:39.406Z,29.90
2017-07-30T17:30:07.776Z,29.70
2017-07-30T17:32:36.168Z,29.70
2017-07-30T17:35:03.830Z,29.60
2017-07-30T17:37:32.306Z,29.40
2017-07-30T17:40:00.031Z,29.30
2017-07-30T17:42:27.818Z,29.20
2017-07-30T17:44:55.473Z,29.20
2017-07-30T17:47:23.125Z,29.00
2017-07-30T17:49:50.725Z,29.00
2017-07-30T17:52:18.377Z,28.80
2017-07-30T17:54:46.069Z,28.80
2017-07-30T17:57:14.506Z,28.90
2017-07-30T17:59:42.188Z,28.80
2017-07-30T18:02:10.666Z,28.90
2017-07-30T18:04:38.381Z,28.70
2017-07-30T18:07:06.818Z,28.60
2017-07-30T18:09:34.464Z,28.50
2017-07-30T18:12:02.210Z,28.50
2017-07-30T18:14:30.005Z,28.40
2017-07-30T18:16:57.666Z,28.30
2017-07-30T18:19:25.320Z,28.20
2017-07-30T18:21:53.688Z,27.90
2017-07-30T18:24:21.369Z,27.80
2017-07-30T18:26:49.637Z,27.80
2017-07-30T18:29:17.294Z,27.80
2017-07-30T18:31:45.119Z,27.80
2017-07-30T18:34:12.847Z,27.70
2017-07-30T18:36:41.211Z,27.70
2017-07-30T18:39:08.829Z,27.70
2017-07-30T18:41:36.528Z,27.80
2017-07-30T18:44:04.812Z,27.70
2017-07-30T18:46:32.757Z,27.60
2017-07-30T18:49:00.539Z,27.40
2017-07-30T18:51:28.149Z,27.30
2017-07-30T18:53:55.864Z,27.20
2017-07-30T18:56:23.587Z,27.00
2017-07-30T18:58:52.011Z,26.70
2017-07-30T19:01:19.893Z,26.60
2017-07-30T19:03:47.522Z,26.50
2017-07-30T19:06:15.172Z,26.40
2017-07-30T19:08:42.810Z,26.30
2017-07-30T19:11:10.407Z,26.20
2017-07-30T19:13:38.054Z,26.00
2017-07-30T19:16:05.662Z,25.90
2017-07-30T19:18:33.313Z,25.80
2017-07-30T19:21:00.926Z,25.60
2017-07-30T19:23:28.541Z,25.50
2017-07-30T19:25:56.169Z,25.50
2017-07-30T19:28:24.528Z,25.30
2017-07-30T19:30:52.155Z,25.30
2017-07-30T19:33:19.791Z,25.30
2017-07-30T19:35:47.384Z,25.30
2017-07-30T19:38:15.013Z,25.10
2017-07-30T19:40:43.383Z,25.00
2017-07-30T19:43:11.797Z,25.00
2017-07-30T19:45:40.351Z,24.90
2017-07-30T19:48:07.960Z,24.90
2017-07-30T19:50:36.361Z,24.70
2017-07-30T19:53:03.973Z,24.70
2017-07-30T19:55:31.676Z,24.60
2017-07-30T19:58:00.109Z,24.70
2017-07-30T20:00:27.763Z,24.70
2017-07-30T20:02:55.406Z,24.60
2017-07-30T20:05:23.022Z,24.50
2017-07-30T20:07:51.427Z,24.40
2017-07-30T20:10:19.036Z,24.30
2017-07-30T20:12:47.214Z,24.40
2017-07-30T20:15:14.848Z,24.30
2017-07-30T20:17:42.462Z,24.20
2017-07-30T20:20:10.113Z,24.20
2017-07-30T20:22:38.754Z,24.00
2017-07-30T20:25:07.162Z,24.00
2017-07-30T20:27:34.809Z,24.00
2017-07-30T20:30:03.185Z,23.80
2017-07-30T20:32:30.852Z,23.80
2017-07-30T20:34:59.213Z,23.70
2017-07-30T20:37:26.836Z,23.60
2017-07-30T20:39:54.481Z,23.60
2017-07-30T20:42:22.856Z,23.50
2017-07-30T20:44:51.698Z,23.40
2017-07-30T20:47:19.365Z,23.50
2017-07-30T20:49:46.973Z,23.40
2017-07-30T20:52:14.616Z,23.40
2017-07-30T20:54:42.221Z,23.30
2017-07-30T20:57:10.808Z,23.20
2017-07-30T20:59:38.461Z,23.10
2017-07-30T21:02:06.055Z,23.10
2017-07-30T21:04:34.454Z,23.20
2017-07-30T21:07:03.361Z,23.10
2017-07-30T21:09:31.105Z,23.30
2017-07-30T21:11:58.758Z,23.30
2017-07-30T21:14:26.354Z,23.20
2017-07-30T21:16:54.257Z,23.10
2017-07-30T21:19:21.855Z,23.10
2017-07-30T21:21:49.525Z,23.00
2017-07-30T21:24:17.145Z,22.90
2017-07-30T21:26:45.857Z,22.70
2017-07-30T21:29:13.950Z,22.70
2017-07-30T21:31:41.575Z,22.60
2017-07-30T21:34:09.312Z,22.50
2017-07-30T21:36:36.936Z,22.50
2017-07-30T21:39:04.848Z,22.40
2017-07-30T21:41:33.643Z,22.40
2017-07-30T21:44:01.313Z,22.30
2017-07-30T21:46:28.947Z,22.30
2017-07-30T21:48:56.556Z,22.30
2017-07-30T21:51:24.930Z,22.20
2017-07-30T21:53:53.332Z,22.10
2017-07-30T21:56:20.953Z,22.10
2017-07-30T21:58:48.602Z,22.10
2017-07-30T22:01:17.735Z,22.10
2017-07-30T22:03:45.421Z,22.10
2017-07-30T22:06:13.828Z,22.10
2017-07-30T22:08:41.438Z,22.00
2017-07-30T22:11:09.084Z,22.00
2017-07-30T22:13:36.702Z,22.00
2017-07-30T22:16:04.315Z,22.00
2017-07-30T22:18:31.960Z,21.90
2017-07-30T22:20:59.611Z,21.80
2017-07-30T22:23:27.273Z,21.90
2017-07-30T22:25:54.880Z,21.80
2017-07-30T22:28:22.480Z,21.70
2017-07-30T22:30:50.134Z,21.60
2017-07-30T22:33:18.531Z,21.60
2017-07-30T22:35:46.164Z,21.50
2017-07-30T22:38:13.777Z,21.50
2017-07-30T22:40:41.405Z,21.40
2017-07-30T22:43:09.073Z,21.30
2017-07-30T22:45:36.677Z,21.30
2017-07-30T22:48:04.323Z,21.30
2017-07-30T22:50:31.916Z,21.20
2017-07-30T22:52:59.537Z,21.20
2017-07-30T22:55:27.167Z,21.20
2017-07-30T22:57:54.767Z,21.20
2017-07-30T23:00:23.173Z,21.20
2017-07-30T23:02:50.775Z,21.10
2017-07-30T23:05:18.381Z,21.10
2017-07-30T23:07:46.019Z,21.10
2017-07-30T23:10:13.624Z,21.20
2017-07-30T23:12:41.269Z,21.10
2017-07-30T23:15:08.878Z,21.00
2017-07-30T23:17:36.493Z,21.00
2017-07-30T23:20:04.153Z,20.90
2017-07-30T23:22:31.759Z,20.80
2017-07-30T23:24:59.441Z,20.70
2017-07-30T23:27:27.049Z,20.80
2017-07-30T23:29:54.664Z,20.80
2017-07-30T23:32:22.305Z,20.80
2017-07-30T23:34:49.924Z,20.70
2017-07-30T23:37:17.565Z,20.70
2017-07-30T23:39:45.160Z,20.70
2017-07-30T23:42:13.525Z,20.70
2017-07-30T23:44:41.937Z,20.70
2017-07-30T23:47:09.561Z,20.60
2017-07-30T23:49:37.202Z,20.60
2017-07-30T23:52:04.803Z,20.50
2017-07-30T23:54:32.410Z,20.50
2017-07-30T23:57:00.103Z,20.50
2017-07-30T23:59:27.729Z,20.40
